Hlavní strana
METAR-TAF:

METAR-TAF

Letiště :

Macas, Ekvádor

zeměpisná šířka: 02-17-57-S, zeměpisná délka: 078-07-15-W, výška: 1052 m

Aktuální stav počasí

Zpráva byla vytvořena před 1 hodinou a 0 minutami, v 13:00 UTC
Jihojihovýchodní vítr 2 kt
Teplota 18°C
Vlhkost vzduchu 100%
Tlak 1021 hPa
Viditelnost: 2000 m
Zataženo ve výšce 400 ft
kouřmo

METAR: SEMC 261300Z 15002KT 2000 BR OVC004 18/18 Q1021 RMK A3018

Čas: 09:00 (14:00 UTC)


TAF: chybějící

Stav a předpovědi počasí z více než 4 000 letišť (zprávy METAR a TAF).

Červené a žluté tečky na mapě představují dostupné meteorologické stanice.

Když kurzor umístíte na tečku, zobrazí se název stanice.

Pak kliknutím zobrazíte stav a předpověď počasí.

Chcete-li změnit mapu, kliknutím na zelené tlačítko se znaménkem +mapu přiblížíte, kliknutím na zelené tlačítko se znaménkem – mapu oddálíte a kliknutím na zelené šipky přejdete na sousední mapy.


METAR-TAF: